Big Bear Station Historical Data
Daily Summary for May 16, 2019 Units:  English    Metric   Both
Next Day »
Daily Weekly Monthly Yearly Custom
  High: Low: Average:
Temperature: 45.3 °F 33.6 °F 39.8 °F
Dew Point: 43.1 °F 25.5 °F 34.8 °F
Humidity: 99% 53% 84%
Wind Speed: 7.8mph 0mph 2.8mph
Wind Gust: 20.2mph - -
Wind- - SSW
Pressure: 23.40 in 23.30 in -
Precipitation: 0.51 in    
Historical Graphs
 
 
Tabular Data for May 16, 2019
Time Temperature Dew Point Pressure Wind Wind Speed Wind Gust Humidity Rainfall Rate (Hourly)
00:09 39.9 °F 25.5 °F 23.40 in Calm   -999 mph 56% 0.00 in
00:25 40.3 °F 26.3 °F 23.40 in Calm   -999 mph 57% 0.00 in
00:40 40.5 °F 26 °F 23.39 in Calm   -999 mph 56% 0.00 in
00:55 40.6 °F 25.7 °F 23.39 in Calm   -999 mph 55% 0.00 in
01:10 40.5 °F 25.6 °F 23.38 in Calm   -999 mph 55% 0.00 in
01:25 40.6 °F 25.7 °F 23.38 in NNW 3.7 mph -999 mph 55% 0.00 in
01:41 41 °F 26.1 °F 23.37 in NE 1.7 mph -999 mph 55% 0.00 in
01:56 41 °F 27.3 °F 23.37 in Calm   -999 mph 58% 0.00 in
02:11 40.8 °F 27.2 °F 23.37 in Calm   -999 mph 58% 0.00 in
02:26 41 °F 28.2 °F 23.37 in West 1.7 mph -999 mph 60% 0.00 in
02:41 41 °F 27.8 °F 23.35 in NW 2.7 mph -999 mph 59% 0.00 in
02:57 41 °F 27.8 °F 23.35 in Calm   -999 mph 59% 0.00 in
03:12 41 °F 26.5 °F 23.35 in Calm   -999 mph 56% 0.00 in
03:27 41.2 °F 25.8 °F 23.34 in North 2.7 mph -999 mph 54% 0.00 in
03:43 41.4 °F 25.5 °F 23.34 in NW 2.2 mph -999 mph 53% 0.00 in
03:58 41.7 °F 26.3 °F 23.33 in NW 2.2 mph -999 mph 54% 0.00 in
04:14 41.9 °F 26.9 °F 23.33 in Calm   -999 mph 55% 0.00 in
04:29 42.1 °F 27.5 °F 23.32 in Calm   -999 mph 56% 0.00 in
04:44 42.3 °F 29.4 °F 23.32 in Calm   -999 mph 60% 0.00 in
04:59 42.8 °F 35.1 °F 23.32 in Calm   -999 mph 74% 0.00 in
05:14 43.2 °F 39.6 °F 23.31 in SSE 6.3 mph -999 mph 87% 0.00 in
05:30 42.8 °F 39.8 °F 23.30 in SSW 1.1 mph -999 mph 89% 0.00 in
05:45 42.3 °F 39.9 °F 23.30 in Calm   -999 mph 91% 0.00 in
06:00 41.7 °F 39.5 °F 23.30 in Calm   -999 mph 92% 0.00 in
06:15 41 °F 39.1 °F 23.31 in West 4.2 mph -999 mph 93% 0.00 in
06:31 41 °F 39.1 °F 23.30 in South 2.7 mph -999 mph 93% 0.00 in
06:46 40.6 °F 39 °F 23.30 in Calm   -999 mph 94% 0.00 in
07:01 41 °F 39.4 °F 23.30 in South 4.7 mph -999 mph 94% 0.00 in
07:16 41.5 °F 39.9 °F 23.30 in SW 1.1 mph -999 mph 94% 0.00 in
07:32 42.4 °F 40.8 °F 23.30 in WSW 3.7 mph -999 mph 94% 0.00 in
07:47 43 °F 41.1 °F 23.30 in SSE 4.2 mph -999 mph 93% 0.00 in
08:02 43.7 °F 41.5 °F 23.31 in South 2.7 mph -999 mph 92% 0.00 in
08:18 44.2 °F 42 °F 23.31 in NW 1.7 mph -999 mph 92% 0.00 in
08:33 44.2 °F 41.7 °F 23.31 in Calm   -999 mph 91% 0.00 in
08:48 44.6 °F 42.4 °F 23.31 in SSW 3.2 mph -999 mph 92% 0.00 in
09:03 45.3 °F 42.5 °F 23.31 in SSE 6.3 mph -999 mph 90% 0.00 in
09:18 43.7 °F 41.2 °F 23.30 in SSW 3.7 mph -999 mph 91% 0.00 in
09:34 45 °F 43.1 °F 23.30 in WSW 4.2 mph -999 mph 93% 0.00 in
09:50 43.2 °F 41.3 °F 23.30 in SSW 2.7 mph -999 mph 93% 0.00 in
10:05 43.9 °F 42.3 °F 23.30 in South 3.7 mph -999 mph 94% 0.00 in
10:20 43.2 °F 41.6 °F 23.30 in SSE 5.3 mph -999 mph 94% 0.00 in
10:36 43.5 °F 41.9 °F 23.30 in ESE 3.7 mph -999 mph 94% 0.00 in
10:51 42.6 °F 40.4 °F 23.30 in NW 3.2 mph -999 mph 92% 0.00 in
11:07 43 °F 41.7 °F 23.30 in ESE 3.7 mph -999 mph 95% 0.00 in
11:22 43 °F 41.4 °F 23.30 in SSW 3.2 mph -999 mph 94% 0.00 in
11:37 42.3 °F 40.7 °F 23.31 in SSE 7.8 mph -999 mph 94% 0.00 in
11:53 42.6 °F 41.3 °F 23.31 in South 3.2 mph -999 mph 95% 0.00 in
12:08 41.9 °F 40.6 °F 23.32 in West 4.2 mph -999 mph 95% 0.00 in
12:24 41 °F 39.1 °F 23.31 in SSW 7.3 mph -999 mph 93% 0.00 in
12:39 41.2 °F 39.6 °F 23.32 in West 4.2 mph -999 mph 94% 0.00 in
12:55 41.2 °F 39.6 °F 23.32 in NE 7.3 mph -999 mph 94% 0.00 in
13:10 41 °F 39.1 °F 23.32 in SE 3.7 mph 20.2 mph 93% 0.00 in
13:25 41.2 °F 38.5 °F 23.32 in WSW 4.2 mph -999 mph 90% 0.00 in
13:41 40.6 °F 37.9 °F 23.32 in South 3.7 mph -999 mph 90% 0.00 in
13:56 40.1 °F 37.7 °F 23.32 in ESE 3.7 mph -999 mph 91% 0.00 in
14:11 40.6 °F 37 °F 23.32 in SSE 6.8 mph -999 mph 87% 0.00 in
14:27 39.7 °F 36.4 °F 23.31 in North 4.2 mph -999 mph 88% 0.00 in
14:42 40.3 °F 37.6 °F 23.31 in West 2.2 mph -999 mph 90% 0.00 in
14:57 39 °F 36.6 °F 23.31 in South 3.7 mph -999 mph 91% 0.00 in
15:13 38.3 °F 35.1 °F 23.32 in SSW 3.7 mph -999 mph 88% 0.00 in
15:28 38.8 °F 35.3 °F 23.32 in SSW 2.2 mph -999 mph 87% 0.00 in
15:43 39 °F 34 °F 23.32 in NNW 4.7 mph -999 mph 82% 0.00 in
15:58 37.4 °F 33 °F 23.32 in SSW 4.7 mph -999 mph 84% 0.00 in
16:13 38.8 °F 34.4 °F 23.31 in SW 4.2 mph -999 mph 84% 0.00 in
16:29 37.8 °F 33.1 °F 23.32 in South 7.8 mph -999 mph 83% 0.00 in
16:44 41.2 °F 34.9 °F 23.32 in NNE 2.2 mph -999 mph 78% 0.00 in
16:59 42.3 °F 33.9 °F 23.32 in NNW 2.2 mph -999 mph 72% 0.00 in
17:14 43.3 °F 33.8 °F 23.32 in West 5.3 mph -999 mph 69% 0.00 in
17:29 42.8 °F 33 °F 23.32 in ESE 3.7 mph -999 mph 68% 0.00 in
17:45 39.6 °F 32 °F 23.33 in SSW 1.7 mph -999 mph 74% 0.00 in
18:00 38.1 °F 32.2 °F 23.33 in NNE 4.2 mph -999 mph 79% 0.00 in
18:15 37 °F 31.4 °F 23.32 in North 2.7 mph -999 mph 80% 0.00 in
18:31 36.5 °F 32.1 °F 23.32 in Calm   -999 mph 84% 0.00 in
18:46 35.6 °F 31.5 °F 23.33 in Calm   -999 mph 85% 0.00 in
19:01 35.4 °F 31.6 °F 23.33 in SSE 2.2 mph -999 mph 86% 0.00 in
19:16 35.2 °F 31.7 °F 23.33 in ESE 2.7 mph -999 mph 87% 0.00 in
19:32 35.2 °F 32.3 °F 23.33 in Calm   -999 mph 89% 0.00 in
19:48 34.9 °F 33.1 °F 23.33 in SSE 3.7 mph -999 mph 93% 0.00 in
20:03 34.9 °F 33.3 °F 23.33 in NNW 4.2 mph -999 mph 94% 0.00 in
20:19 35.1 °F 34.1 °F 23.33 in SSW 3.2 mph -999 mph 96% 0.00 in
20:34 34.9 °F 34.1 °F 23.33 in ESE 2.2 mph -999 mph 97% 0.00 in
20:49 34.5 °F 33.7 °F 23.33 in Calm   -999 mph 97% 0.00 in
21:04 34.3 °F 33.8 °F 23.34 in NNW 3.2 mph -999 mph 98% 0.00 in
21:19 34.3 °F 33.8 °F 23.34 in WSW 5.3 mph -999 mph 98% 0.00 in
21:35 34.2 °F 33.7 °F 23.35 in NNW 4.2 mph -999 mph 98% 0.00 in
21:50 34.2 °F 33.7 °F 23.35 in NNW 6.8 mph -999 mph 98% 0.00 in
22:06 34.3 °F 34 °F 23.36 in West 4.2 mph -999 mph 99% 0.00 in
22:21 34 °F 33.7 °F 23.35 in NNE 3.2 mph -999 mph 99% 0.00 in
22:36 34 °F 33.5 °F 23.36 in South 4.2 mph -999 mph 98% 0.00 in
22:52 34.2 °F 33.7 °F 23.36 in East 2.2 mph -999 mph 98% 0.00 in
23:07 34 °F 33.5 °F 23.36 in ESE 3.2 mph -999 mph 98% 0.00 in
23:22 33.8 °F 33 °F 23.36 in WNW 2.7 mph -999 mph 97% 0.00 in
23:38 33.6 °F 32.6 °F 23.36 in Calm   -999 mph 96% 0.00 in
23:53 33.8 °F 32.8 °F 23.36 in Calm   -999 mph 96% 0.00 in
Big Bear CA Weather